sensor_id;sensor_type;location;lat;lon;timestamp;pressure;altitude;pressure_sealevel;temperature;humidity
4590;BME280;2307;48.448;9.216;2023-05-01T00:00:43;95321.19;;;12.23;81.58
4590;BME280;2307;48.448;9.216;2023-05-01T00:03:10;95319.22;;;12.35;84.57
4590;BME280;2307;48.448;9.216;2023-05-01T00:05:38;95314.25;;;12.17;84.05
4590;BME280;2307;48.448;9.216;2023-05-01T00:08:04;95306.28;;;12.17;81.83
4590;BME280;2307;48.448;9.216;2023-05-01T00:10:30;95313.47;;;12.21;85.42
4590;BME280;2307;48.448;9.216;2023-05-01T00:13:00;95309.50;;;12.19;85.91
4590;BME280;2307;48.448;9.216;2023-05-01T00:15:28;95302.59;;;12.18;80.92
4590;BME280;2307;48.448;9.216;2023-05-01T00:17:54;95297.72;;;12.10;81.54
4590;BME280;2307;48.448;9.216;2023-05-01T00:20:21;95300.88;;;12.07;81.60
4590;BME280;2307;48.448;9.216;2023-05-01T00:22:47;95291.81;;;12.03;80.14
4590;BME280;2307;48.448;9.216;2023-05-01T00:25:14;95292.13;;;12.06;80.18
4590;BME280;2307;48.448;9.216;2023-05-01T00:27:40;95290.28;;;12.07;80.82
4590;BME280;2307;48.448;9.216;2023-05-01T00:30:07;95285.47;;;12.04;81.73
4590;BME280;2307;48.448;9.216;2023-05-01T00:32:35;95284.91;;;12.02;81.01
4590;BME280;2307;48.448;9.216;2023-05-01T00:35:02;95282.47;;;11.95;80.75
4590;BME280;2307;48.448;9.216;2023-05-01T00:37:29;95285.47;;;12.04;80.80
4590;BME280;2307;48.448;9.216;2023-05-01T00:39:56;95275.88;;;11.98;81.85
4590;BME280;2307;48.448;9.216;2023-05-01T00:42:22;95279.38;;;12.03;79.92
4590;BME280;2307;48.448;9.216;2023-05-01T00:44:49;95275.59;;;12.21;80.72
4590;BME280;2307;48.448;9.216;2023-05-01T00:47:15;95271.88;;;12.17;78.74
4590;BME280;2307;48.448;9.216;2023-05-01T00:49:43;95269.72;;;12.14;78.31
4590;BME280;2307;48.448;9.216;2023-05-01T00:52:09;95263.84;;;12.12;81.41
4590;BME280;2307;48.448;9.216;2023-05-01T00:54:36;95261.28;;;12.17;81.86
4590;BME280;2307;48.448;9.216;2023-05-01T00:57:03;95258.75;;;12.27;77.85
4590;BME280;2307;48.448;9.216;2023-05-01T00:59:29;95259.66;;;12.38;79.48
4590;BME280;2307;48.448;9.216;2023-05-01T01:01:56;95264.25;;;12.47;79.07
4590;BME280;2307;48.448;9.216;2023-05-01T01:04:22;95256.00;;;12.44;80.39
4590;BME280;2307;48.448;9.216;2023-05-01T01:06:54;95251.72;;;12.38;76.45
4590;BME280;2307;48.448;9.216;2023-05-01T01:09:25;95249.56;;;12.35;78.00
4590;BME280;2307;48.448;9.216;2023-05-01T01:11:56;95252.16;;;12.30;77.87
4590;BME280;2307;48.448;9.216;2023-05-01T01:14:26;95242.97;;;12.37;78.36
4590;BME280;2307;48.448;9.216;2023-05-01T01:16:58;95243.56;;;12.44;79.23
4590;BME280;2307;48.448;9.216;2023-05-01T01:19:33;95240.91;;;12.44;80.91
4590;BME280;2307;48.448;9.216;2023-05-01T01:22:11;95240.41;;;12.47;78.89
4590;BME280;2307;48.448;9.216;2023-05-01T01:24:46;95242.03;;;12.48;80.44
4590;BME280;2307;48.448;9.216;2023-05-01T01:27:32;95238.47;;;12.38;78.57
4590;BME280;2307;48.448;9.216;2023-05-01T01:30:07;95231.03;;;12.35;84.40
4590;BME280;2307;48.448;9.216;2023-05-01T01:32:46;95231.88;;;12.40;88.45
4590;BME280;2307;48.448;9.216;2023-05-01T01:35:23;95231.78;;;12.30;92.86
4590;BME280;2307;48.448;9.216;2023-05-01T01:37:53;95228.44;;;12.18;97.24
4590;BME280;2307;48.448;9.216;2023-05-01T01:40:21;95229.38;;;12.29;96.38
4590;BME280;2307;48.448;9.216;2023-05-01T01:42:50;95228.38;;;12.35;94.66
4590;BME280;2307;48.448;9.216;2023-05-01T01:45:20;95228.06;;;12.31;97.24
4590;BME280;2307;48.448;9.216;2023-05-01T01:47:47;95225.09;;;12.27;98.49
4590;BME280;2307;48.448;9.216;2023-05-01T01:50:15;95219.13;;;12.10;100.00
4590;BME280;2307;48.448;9.216;2023-05-01T01:52:45;95217.69;;;12.03;100.00
4590;BME280;2307;48.448;9.216;2023-05-01T01:55:12;95227.88;;;12.11;100.00
4590;BME280;2307;48.448;9.216;2023-05-01T01:57:40;95218.28;;;12.05;100.00
4590;BME280;2307;48.448;9.216;2023-05-01T02:00:09;95223.25;;;12.01;100.00
4590;BME280;2307;48.448;9.216;2023-05-01T02:02:37;95208.72;;;12.04;100.00
4590;BME280;2307;48.448;9.216;2023-05-01T02:05:05;95211.94;;;11.84;100.00
4590;BME280;2307;48.448;9.216;2023-05-01T02:07:32;95213.78;;;11.84;100.00
4590;BME280;2307;48.448;9.216;2023-05-01T02:10:00;95207.56;;;11.95;100.00
4590;BME280;2307;48.448;9.216;2023-05-01T02:12:29;95204.59;;;11.91;100.00
4590;BME280;2307;48.448;9.216;2023-05-01T02:14:56;95200.66;;;11.94;100.00
4590;BME280;2307;48.448;9.216;2023-05-01T02:17:23;95207.13;;;11.81;100.00
4590;BME280;2307;48.448;9.216;2023-05-01T02:19:51;95202.63;;;11.82;100.00
4590;BME280;2307;48.448;9.216;2023-05-01T02:22:19;95201.66;;;11.88;100.00
4590;BME280;2307;48.448;9.216;2023-05-01T02:24:46;95202.63;;;11.82;100.00
4590;BME280;2307;48.448;9.216;2023-05-01T02:27:15;95204.28;;;11.88;100.00
4590;BME280;2307;48.448;9.216;2023-05-01T02:29:44;95201.22;;;11.74;100.00
4590;BME280;2307;48.448;9.216;2023-05-01T02:32:10;95207.09;;;11.59;100.00
4590;BME280;2307;48.448;9.216;2023-05-01T02:34:37;95202.97;;;11.68;100.00
4590;BME280;2307;48.448;9.216;2023-05-01T02:37:03;95202.56;;;11.77;100.00
4590;BME280;2307;48.448;9.216;2023-05-01T02:39:31;95198.97;;;11.83;100.00
4590;BME280;2307;48.448;9.216;2023-05-01T02:41:57;95200.03;;;11.87;100.00
4590;BME280;2307;48.448;9.216;2023-05-01T02:44:28;95198.25;;;11.70;100.00
4590;BME280;2307;48.448;9.216;2023-05-01T02:46:56;95200.50;;;11.79;100.00
4590;BME280;2307;48.448;9.216;2023-05-01T02:49:23;95200.28;;;11.63;100.00
4590;BME280;2307;48.448;9.216;2023-05-01T02:51:50;95193.91;;;11.64;100.00
4590;BME280;2307;48.448;9.216;2023-05-01T02:54:17;95194.00;;;11.48;100.00
4590;BME280;2307;48.448;9.216;2023-05-01T02:56:44;95185.44;;;11.62;100.00
4590;BME280;2307;48.448;9.216;2023-05-01T02:59:11;95193.44;;;11.67;100.00
4590;BME280;2307;48.448;9.216;2023-05-01T03:01:39;95182.97;;;11.73;100.00
4590;BME280;2307;48.448;9.216;2023-05-01T03:04:05;95184.00;;;11.71;100.00
4590;BME280;2307;48.448;9.216;2023-05-01T03:06:31;95188.13;;;11.67;100.00
4590;BME280;2307;48.448;9.216;2023-05-01T03:08:58;95186.16;;;11.58;100.00
4590;BME280;2307;48.448;9.216;2023-05-01T03:11:25;95190.78;;;11.67;100.00
4590;BME280;2307;48.448;9.216;2023-05-01T03:13:51;95187.09;;;11.68;100.00
4590;BME280;2307;48.448;9.216;2023-05-01T03:16:18;95184.91;;;11.60;100.00
4590;BME280;2307;48.448;9.216;2023-05-01T03:18:45;95176.84;;;11.50;100.00
4590;BME280;2307;48.448;9.216;2023-05-01T03:21:12;95180.16;;;11.62;100.00
4590;BME280;2307;48.448;9.216;2023-05-01T03:23:39;95178.13;;;11.69;100.00
4590;BME280;2307;48.448;9.216;2023-05-01T03:26:05;95180.78;;;11.69;100.00
4590;BME280;2307;48.448;9.216;2023-05-01T03:28:32;95182.69;;;11.74;100.00
4590;BME280;2307;48.448;9.216;2023-05-01T03:30:59;95179.31;;;11.79;100.00
4590;BME280;2307;48.448;9.216;2023-05-01T03:33:25;95178.75;;;11.77;100.00
4590;BME280;2307;48.448;9.216;2023-05-01T03:35:59;95177.66;;;11.73;100.00
4590;BME280;2307;48.448;9.216;2023-05-01T03:38:27;95176.59;;;11.73;100.00
4590;BME280;2307;48.448;9.216;2023-05-01T03:40:54;95173.34;;;11.66;100.00
4590;BME280;2307;48.448;9.216;2023-05-01T03:43:21;95173.75;;;11.58;100.00
4590;BME280;2307;48.448;9.216;2023-05-01T03:45:48;95177.91;;;11.54;100.00
4590;BME280;2307;48.448;9.216;2023-05-01T03:48:15;95171.84;;;11.54;100.00
4590;BME280;2307;48.448;9.216;2023-05-01T03:50:41;95166.31;;;11.55;100.00
4590;BME280;2307;48.448;9.216;2023-05-01T03:53:12;95169.03;;;11.60;100.00
4590;BME280;2307;48.448;9.216;2023-05-01T03:55:39;95168.91;;;11.50;100.00
4590;BME280;2307;48.448;9.216;2023-05-01T03:58:05;95163.84;;;11.49;100.00
4590;BME280;2307;48.448;9.216;2023-05-01T04:00:32;95165.31;;;11.40;100.00
4590;BME280;2307;48.448;9.216;2023-05-01T04:02:58;95158.25;;;11.07;100.00
4590;BME280;2307;48.448;9.216;2023-05-01T04:05:25;95166.91;;;11.19;100.00
4590;BME280;2307;48.448;9.216;2023-05-01T04:07:51;95164.31;;;11.24;100.00
4590;BME280;2307;48.448;9.216;2023-05-01T04:10:19;95173.94;;;11.13;100.00
4590;BME280;2307;48.448;9.216;2023-05-01T04:12:45;95170.31;;;11.19;100.00
4590;BME280;2307;48.448;9.216;2023-05-01T04:15:12;95170.41;;;11.25;100.00
4590;BME280;2307;48.448;9.216;2023-05-01T04:17:38;95170.56;;;11.35;100.00
4590;BME280;2307;48.448;9.216;2023-05-01T04:20:05;95161.88;;;11.39;100.00
4590;BME280;2307;48.448;9.216;2023-05-01T04:22:31;95163.72;;;11.39;100.00
4590;BME280;2307;48.448;9.216;2023-05-01T04:24:58;95162.44;;;11.41;100.00
4590;BME280;2307;48.448;9.216;2023-05-01T04:27:26;95157.66;;;11.38;100.00
4590;BME280;2307;48.448;9.216;2023-05-01T04:29:52;95168.28;;;11.43;100.00
4590;BME280;2307;48.448;9.216;2023-05-01T04:32:19;95167.97;;;11.40;100.00
4590;BME280;2307;48.448;9.216;2023-05-01T04:34:45;95168.13;;;11.33;100.00
4590;BME280;2307;48.448;9.216;2023-05-01T04:37:12;95166.41;;;11.22;100.00
4590;BME280;2307;48.448;9.216;2023-05-01T04:39:38;95178.66;;;11.28;100.00
4590;BME280;2307;48.448;9.216;2023-05-01T04:42:05;95171.84;;;10.94;100.00
4590;BME280;2307;48.448;9.216;2023-05-01T04:44:33;95162.50;;;11.08;100.00
4590;BME280;2307;48.448;9.216;2023-05-01T04:47:01;95170.75;;;11.11;100.00
4590;BME280;2307;48.448;9.216;2023-05-01T04:49:28;95169.94;;;11.11;100.00
4590;BME280;2307;48.448;9.216;2023-05-01T04:51:54;95169.94;;;11.11;100.00
4590;BME280;2307;48.448;9.216;2023-05-01T04:54:21;95167.56;;;11.09;100.00
4590;BME280;2307;48.448;9.216;2023-05-01T04:56:48;95169.63;;;11.07;100.00
4590;BME280;2307;48.448;9.216;2023-05-01T04:59:15;95173.41;;;11.11;100.00
4590;BME280;2307;48.448;9.216;2023-05-01T05:01:42;95165.63;;;11.05;100.00
4590;BME280;2307;48.448;9.216;2023-05-01T05:04:09;95172.44;;;11.01;100.00
4590;BME280;2307;48.448;9.216;2023-05-01T05:06:35;95167.25;;;11.06;100.00
4590;BME280;2307;48.448;9.216;2023-05-01T05:09:01;95172.31;;;10.91;100.00
4590;BME280;2307;48.448;9.216;2023-05-01T05:11:28;95171.91;;;10.99;100.00
4590;BME280;2307;48.448;9.216;2023-05-01T05:13:54;95167.41;;;10.99;100.00
4590;BME280;2307;48.448;9.216;2023-05-01T05:16:21;95171.56;;;10.95;100.00
4590;BME280;2307;48.448;9.216;2023-05-01T05:18:48;95181.91;;;10.97;100.00
4590;BME280;2307;48.448;9.216;2023-05-01T05:21:15;95182.63;;;10.92;100.00
4590;BME280;2307;48.448;9.216;2023-05-01T05:23:41;95177.38;;;11.14;100.00
4590;BME280;2307;48.448;9.216;2023-05-01T05:26:08;95180.34;;;11.17;100.00
4590;BME280;2307;48.448;9.216;2023-05-01T05:28:34;95174.75;;;11.14;100.00
4590;BME280;2307;48.448;9.216;2023-05-01T05:31:01;95182.19;;;11.17;100.00
4590;BME280;2307;48.448;9.216;2023-05-01T05:33:27;95183.25;;;11.16;100.00
4590;BME280;2307;48.448;9.216;2023-05-01T05:35:56;95182.03;;;11.24;100.00
4590;BME280;2307;48.448;9.216;2023-05-01T05:38:23;95183.94;;;11.28;100.00
4590;BME280;2307;48.448;9.216;2023-05-01T05:40:49;95183.94;;;11.28;100.00
4590;BME280;2307;48.448;9.216;2023-05-01T05:43:18;95180.31;;;11.34;100.00
4590;BME280;2307;48.448;9.216;2023-05-01T05:45:44;95182.59;;;11.26;100.00
4590;BME280;2307;48.448;9.216;2023-05-01T05:48:11;95188.06;;;11.19;100.00
4590;BME280;2307;48.448;9.216;2023-05-01T05:50:37;95187.31;;;11.24;100.00
4590;BME280;2307;48.448;9.216;2023-05-01T05:53:05;95185.47;;;11.24;100.00
4590;BME280;2307;48.448;9.216;2023-05-01T05:55:33;95183.25;;;11.16;100.00
4590;BME280;2307;48.448;9.216;2023-05-01T05:58:00;95195.56;;;11.27;100.00
4590;BME280;2307;48.448;9.216;2023-05-01T06:00:26;95189.22;;;11.28;100.00
4590;BME280;2307;48.448;9.216;2023-05-01T06:02:53;95186.09;;;11.31;100.00
4590;BME280;2307;48.448;9.216;2023-05-01T06:05:19;95190.31;;;11.32;100.00
4590;BME280;2307;48.448;9.216;2023-05-01T06:07:45;95180.81;;;11.31;100.00
4590;BME280;2307;48.448;9.216;2023-05-01T06:10:13;95188.75;;;11.31;100.00
4590;BME280;2307;48.448;9.216;2023-05-01T06:12:40;95193.28;;;11.36;100.00
4590;BME280;2307;48.448;9.216;2023-05-01T06:15:06;95193.06;;;11.37;100.00
4590;BME280;2307;48.448;9.216;2023-05-01T06:17:33;95189.59;;;11.37;100.00
4590;BME280;2307;48.448;9.216;2023-05-01T06:20:00;95193.06;;;11.37;100.00
4590;BME280;2307;48.448;9.216;2023-05-01T06:22:29;95190.41;;;11.37;100.00
4590;BME280;2307;48.448;9.216;2023-05-01T06:24:55;95194.09;;;11.36;100.00
4590;BME280;2307;48.448;9.216;2023-05-01T06:27:23;95194.56;;;11.33;100.00
4590;BME280;2307;48.448;9.216;2023-05-01T06:29:49;95188.53;;;11.16;100.00
4590;BME280;2307;48.448;9.216;2023-05-01T06:32:16;95188.72;;;11.09;100.00
4590;BME280;2307;48.448;9.216;2023-05-01T06:34:42;95189.53;;;10.93;100.00
4590;BME280;2307;48.448;9.216;2023-05-01T06:37:09;95189.25;;;10.95;100.00
4590;BME280;2307;48.448;9.216;2023-05-01T06:39:35;95189.69;;;10.87;100.00
4590;BME280;2307;48.448;9.216;2023-05-01T06:42:02;95186.28;;;11.08;100.00
4590;BME280;2307;48.448;9.216;2023-05-01T06:44:30;95190.13;;;11.17;100.00
4590;BME280;2307;48.448;9.216;2023-05-01T06:46:56;95194.25;;;11.30;100.00
4590;BME280;2307;48.448;9.216;2023-05-01T06:49:22;95197.31;;;11.38;100.00
4590;BME280;2307;48.448;9.216;2023-05-01T06:51:49;95191.44;;;11.36;100.00
4590;BME280;2307;48.448;9.216;2023-05-01T06:54:15;95197.31;;;11.38;100.00
4590;BME280;2307;48.448;9.216;2023-05-01T06:56:41;95201.63;;;11.44;100.00
4590;BME280;2307;48.448;9.216;2023-05-01T06:59:08;95197.59;;;11.42;100.00
4590;BME280;2307;48.448;9.216;2023-05-01T07:01:36;95201.19;;;11.52;100.00
4590;BME280;2307;48.448;9.216;2023-05-01T07:04:02;95204.94;;;11.56;100.00
4590;BME280;2307;48.448;9.216;2023-05-01T07:06:29;95212.13;;;11.61;100.00
4590;BME280;2307;48.448;9.216;2023-05-01T07:08:56;95203.53;;;11.70;100.00
4590;BME280;2307;48.448;9.216;2023-05-01T07:11:22;95205.81;;;11.84;100.00
4590;BME280;2307;48.448;9.216;2023-05-01T07:13:50;95209.81;;;11.86;100.00
4590;BME280;2307;48.448;9.216;2023-05-01T07:16:17;95206.13;;;11.87;100.00
4590;BME280;2307;48.448;9.216;2023-05-01T07:18:46;95206.44;;;11.91;100.00
4590;BME280;2307;48.448;9.216;2023-05-01T07:21:12;95204.41;;;11.98;100.00
4590;BME280;2307;48.448;9.216;2023-05-01T07:23:38;95208.66;;;11.99;100.00
4590;BME280;2307;48.448;9.216;2023-05-01T07:26:05;95215.72;;;11.93;100.00
4590;BME280;2307;48.448;9.216;2023-05-01T07:28:31;95206.50;;;11.96;100.00
4590;BME280;2307;48.448;9.216;2023-05-01T07:30:58;95206.44;;;11.91;100.00
4590;BME280;2307;48.448;9.216;2023-05-01T07:33:25;95207.75;;;11.88;100.00
4590;BME280;2307;48.448;9.216;2023-05-01T07:35:53;95204.44;;;11.76;100.00
4590;BME280;2307;48.448;9.216;2023-05-01T07:38:19;95206.19;;;11.70;100.00
4590;BME280;2307;48.448;9.216;2023-05-01T07:40:46;95205.78;;;11.79;100.00
4590;BME280;2307;48.448;9.216;2023-05-01T07:43:12;95202.63;;;11.82;100.00
4590;BME280;2307;48.448;9.216;2023-05-01T07:45:39;95196.84;;;11.85;100.00
4590;BME280;2307;48.448;9.216;2023-05-01T07:48:06;95205.69;;;11.73;100.00
4590;BME280;2307;48.448;9.216;2023-05-01T07:50:33;95207.75;;;11.88;100.00
4590;BME280;2307;48.448;9.216;2023-05-01T07:53:01;95205.94;;;11.94;100.00
4590;BME280;2307;48.448;9.216;2023-05-01T07:55:28;95204.16;;;11.78;100.00
4590;BME280;2307;48.448;9.216;2023-05-01T07:57:55;95201.84;;;11.64;100.00
4590;BME280;2307;48.448;9.216;2023-05-01T08:00:21;95206.00;;;11.77;100.00
4590;BME280;2307;48.448;9.216;2023-05-01T08:02:47;95204.47;;;11.81;100.00
4590;BME280;2307;48.448;9.216;2023-05-01T08:05:14;95199.00;;;11.88;100.00
4590;BME280;2307;48.448;9.216;2023-05-01T08:07:40;95207.69;;;12.05;100.00
4590;BME280;2307;48.448;9.216;2023-05-01T08:10:08;95204.13;;;12.21;100.00
4590;BME280;2307;48.448;9.216;2023-05-01T08:12:35;95198.69;;;12.33;100.00
4590;BME280;2307;48.448;9.216;2023-05-01T08:15:01;95201.38;;;12.38;100.00
4590;BME280;2307;48.448;9.216;2023-05-01T08:17:28;95205.47;;;12.50;100.00
4590;BME280;2307;48.448;9.216;2023-05-01T08:19:55;95206.81;;;12.53;100.00
4590;BME280;2307;48.448;9.216;2023-05-01T08:22:21;95203.91;;;12.49;100.00
4590;BME280;2307;48.448;9.216;2023-05-01T08:24:47;95203.16;;;12.27;100.00
4590;BME280;2307;48.448;9.216;2023-05-01T08:27:16;95203.97;;;12.59;100.00
4590;BME280;2307;48.448;9.216;2023-05-01T08:29:42;95207.41;;;12.87;100.00
4590;BME280;2307;48.448;9.216;2023-05-01T08:32:09;95204.31;;;13.00;100.00
4590;BME280;2307;48.448;9.216;2023-05-01T08:34:35;95206.09;;;13.21;100.00
4590;BME280;2307;48.448;9.216;2023-05-01T08:37:02;95197.63;;;13.24;100.00
4590;BME280;2307;48.448;9.216;2023-05-01T08:39:28;95202.75;;;13.41;100.00
4590;BME280;2307;48.448;9.216;2023-05-01T08:41:55;95206.34;;;13.66;100.00
4590;BME280;2307;48.448;9.216;2023-05-01T08:44:23;95204.06;;;13.90;100.00
4590;BME280;2307;48.448;9.216;2023-05-01T08:46:52;95204.41;;;14.14;100.00
4590;BME280;2307;48.448;9.216;2023-05-01T08:49:23;95210.25;;;14.21;100.00
4590;BME280;2307;48.448;9.216;2023-05-01T08:51:50;95210.88;;;14.38;100.00
4590;BME280;2307;48.448;9.216;2023-05-01T08:54:20;95204.25;;;14.51;100.00
4590;BME280;2307;48.448;9.216;2023-05-01T08:56:47;95209.88;;;14.74;100.00
4590;BME280;2307;48.448;9.216;2023-05-01T08:59:16;95208.25;;;14.63;100.00
4590;BME280;2307;48.448;9.216;2023-05-01T09:01:45;95205.63;;;14.88;100.00
4590;BME280;2307;48.448;9.216;2023-05-01T09:04:12;95210.69;;;14.90;100.00
4590;BME280;2307;48.448;9.216;2023-05-01T09:06:38;95209.34;;;15.03;100.00
4590;BME280;2307;48.448;9.216;2023-05-01T09:09:05;95207.75;;;15.02;100.00
4590;BME280;2307;48.448;9.216;2023-05-01T09:11:32;95210.41;;;15.02;100.00
4590;BME280;2307;48.448;9.216;2023-05-01T09:13:59;95204.56;;;14.95;100.00
4590;BME280;2307;48.448;9.216;2023-05-01T09:16:25;95202.16;;;15.08;100.00
4590;BME280;2307;48.448;9.216;2023-05-01T09:18:53;95204.53;;;15.25;100.00
4590;BME280;2307;48.448;9.216;2023-05-01T09:21:20;95210.94;;;15.09;100.00
4590;BME280;2307;48.448;9.216;2023-05-01T09:23:49;95210.94;;;15.19;100.00
4590;BME280;2307;48.448;9.216;2023-05-01T09:26:15;95212.00;;;15.28;100.00
4590;BME280;2307;48.448;9.216;2023-05-01T09:28:43;95209.28;;;15.38;100.00
4590;BME280;2307;48.448;9.216;2023-05-01T09:31:19;95202.66;;;15.30;100.00
4590;BME280;2307;48.448;9.216;2023-05-01T09:33:50;95213.56;;;15.44;100.00
4590;BME280;2307;48.448;9.216;2023-05-01T09:36:19;95209.00;;;15.44;100.00
4590;BME280;2307;48.448;9.216;2023-05-01T09:38:45;95209.84;;;15.55;100.00
4590;BME280;2307;48.448;9.216;2023-05-01T09:41:12;95208.25;;;15.49;100.00
4590;BME280;2307;48.448;9.216;2023-05-01T09:43:39;95209.56;;;15.62;100.00
4590;BME280;2307;48.448;9.216;2023-05-01T09:46:08;95207.16;;;15.60;100.00
4590;BME280;2307;48.448;9.216;2023-05-01T09:48:35;95197.31;;;15.66;100.00
4590;BME280;2307;48.448;9.216;2023-05-01T09:51:19;95194.56;;;15.91;100.00
4590;BME280;2307;48.448;9.216;2023-05-01T09:53:46;95195.78;;;16.14;100.00
4590;BME280;2307;48.448;9.216;2023-05-01T09:56:13;95202.44;;;16.11;100.00
4590;BME280;2307;48.448;9.216;2023-05-01T09:58:39;95205.38;;;16.10;100.00
4590;BME280;2307;48.448;9.216;2023-05-01T10:01:06;95200.13;;;15.94;100.00
4590;BME280;2307;48.448;9.216;2023-05-01T10:03:32;95197.69;;;16.03;100.00
4590;BME280;2307;48.448;9.216;2023-05-01T10:05:59;95196.38;;;16.01;100.00
4590;BME280;2307;48.448;9.216;2023-05-01T10:08:33;95195.78;;;16.14;100.00
4590;BME280;2307;48.448;9.216;2023-05-01T10:11:08;95199.56;;;16.03;98.73
4590;BME280;2307;48.448;9.216;2023-05-01T10:13:35;95203.53;;;16.10;100.00
4590;BME280;2307;48.448;9.216;2023-05-01T10:16:01;95199.56;;;16.03;99.02
4590;BME280;2307;48.448;9.216;2023-05-01T10:18:32;95203.81;;;16.04;100.00
4590;BME280;2307;48.448;9.216;2023-05-01T10:20:58;95199.22;;;16.19;100.00
4590;BME280;2307;48.448;9.216;2023-05-01T10:23:25;95200.53;;;16.22;100.00
4590;BME280;2307;48.448;9.216;2023-05-01T10:25:53;95197.56;;;16.28;100.00
4590;BME280;2307;48.448;9.216;2023-05-01T10:28:21;95201.84;;;16.24;100.00
4590;BME280;2307;48.448;9.216;2023-05-01T10:30:49;95209.03;;;16.29;100.00
4590;BME280;2307;48.448;9.216;2023-05-01T10:33:16;95203.09;;;16.37;98.36
4590;BME280;2307;48.448;9.216;2023-05-01T10:35:44;95209.13;;;16.14;98.96
4590;BME280;2307;48.448;9.216;2023-05-01T10:38:18;95209.13;;;16.09;99.70
4590;BME280;2307;48.448;9.216;2023-05-01T10:40:47;95205.72;;;15.98;100.00
4590;BME280;2307;48.448;9.216;2023-05-01T10:43:16;95200.34;;;16.03;100.00
4590;BME280;2307;48.448;9.216;2023-05-01T10:45:43;95209.28;;;16.27;100.00
4590;BME280;2307;48.448;9.216;2023-05-01T10:48:09;95212.50;;;16.24;97.19
4590;BME280;2307;48.448;9.216;2023-05-01T10:53:17;95202.41;;;16.21;100.00
4590;BME280;2307;48.448;9.216;2023-05-01T10:55:44;95202.41;;;16.21;100.00
4590;BME280;2307;48.448;9.216;2023-05-01T10:58:11;95203.72;;;16.24;100.00
4590;BME280;2307;48.448;9.216;2023-05-01T11:00:39;95202.72;;;16.10;100.00
4590;BME280;2307;48.448;9.216;2023-05-01T11:06:03;95198.03;;;15.76;100.00
4590;BME280;2307;48.448;9.216;2023-05-01T11:08:30;95191.16;;;15.60;100.00
4590;BME280;2307;48.448;9.216;2023-05-01T11:10:57;95193.53;;;15.82;100.00
4590;BME280;2307;48.448;9.216;2023-05-01T11:18:47;95197.00;;;15.67;100.00
4590;BME280;2307;48.448;9.216;2023-05-01T11:21:14;95198.59;;;15.73;100.00
4590;BME280;2307;48.448;9.216;2023-05-01T11:23:45;95194.88;;;15.74;100.00
4590;BME280;2307;48.448;9.216;2023-05-01T11:26:12;95194.34;;;15.72;100.00
4590;BME280;2307;48.448;9.216;2023-05-01T11:28:39;95196.44;;;15.80;100.00
4590;BME280;2307;48.448;9.216;2023-05-01T11:31:07;95193.81;;;15.75;100.00
4590;BME280;2307;48.448;9.216;2023-05-01T11:33:34;95189.78;;;15.83;100.00
4590;BME280;2307;48.448;9.216;2023-05-01T11:36:02;95192.19;;;15.84;100.00
4590;BME280;2307;48.448;9.216;2023-05-01T11:38:29;95199.28;;;15.99;100.00
4590;BME280;2307;48.448;9.216;2023-05-01T11:40:59;95191.31;;;16.04;100.00
4590;BME280;2307;48.448;9.216;2023-05-01T11:43:25;95192.25;;;15.69;100.00
4590;BME280;2307;48.448;9.216;2023-05-01T11:45:52;95180.69;;;15.94;100.00
4590;BME280;2307;48.448;9.216;2023-05-01T11:48:20;95202.84;;;15.84;100.00
4590;BME280;2307;48.448;9.216;2023-05-01T11:50:47;95194.78;;;16.00;100.00
4590;BME280;2307;48.448;9.216;2023-05-01T11:53:15;95193.47;;;15.92;100.00
4590;BME280;2307;48.448;9.216;2023-05-01T11:55:41;95191.34;;;15.89;100.00
4590;BME280;2307;48.448;9.216;2023-05-01T11:58:08;95194.63;;;15.76;100.00
4590;BME280;2307;48.448;9.216;2023-05-01T12:00:35;95190.06;;;15.76;100.00
4590;BME280;2307;48.448;9.216;2023-05-01T12:03:02;95190.34;;;15.70;100.00
4590;BME280;2307;48.448;9.216;2023-05-01T12:05:30;95194.34;;;15.72;100.00
4590;BME280;2307;48.448;9.216;2023-05-01T12:08:10;95189.03;;;15.72;100.00
4590;BME280;2307;48.448;9.216;2023-05-01T12:10:38;95188.47;;;15.80;100.00
4590;BME280;2307;48.448;9.216;2023-05-01T12:13:06;95188.97;;;15.87;100.00
4590;BME280;2307;48.448;9.216;2023-05-01T12:15:33;95189.94;;;16.07;100.00
4590;BME280;2307;48.448;9.216;2023-05-01T12:18:00;95190.22;;;16.10;98.86
4590;BME280;2307;48.448;9.216;2023-05-01T12:20:33;95186.22;;;16.08;97.32
4590;BME280;2307;48.448;9.216;2023-05-01T12:22:59;95185.75;;;15.90;100.00
4590;BME280;2307;48.448;9.216;2023-05-01T12:25:28;95180.31;;;16.16;100.00
4590;BME280;2307;48.448;9.216;2023-05-01T12:27:57;95181.97;;;16.07;99.37
4590;BME280;2307;48.448;9.216;2023-05-01T12:30:24;95188.50;;;16.29;95.91
4590;BME280;2307;48.448;9.216;2023-05-01T12:32:51;95188.75;;;16.33;95.10
4590;BME280;2307;48.448;9.216;2023-05-01T12:35:18;95175.94;;;16.35;96.75
4590;BME280;2307;48.448;9.216;2023-05-01T12:37:45;95176.00;;;16.69;91.60
4590;BME280;2307;48.448;9.216;2023-05-01T12:40:12;95173.69;;;16.91;94.64
4590;BME280;2307;48.448;9.216;2023-05-01T12:42:38;95169.88;;;16.68;85.41
4590;BME280;2307;48.448;9.216;2023-05-01T12:45:07;95162.41;;;16.70;88.39
4590;BME280;2307;48.448;9.216;2023-05-01T12:47:38;95172.59;;;16.97;87.64
4590;BME280;2307;48.448;9.216;2023-05-01T12:50:05;95165.44;;;16.92;83.98
4590;BME280;2307;48.448;9.216;2023-05-01T12:52:32;95172.78;;;16.33;86.75
4590;BME280;2307;48.448;9.216;2023-05-01T12:55:02;95170.19;;;16.62;88.66
4590;BME280;2307;48.448;9.216;2023-05-01T12:57:29;95160.97;;;16.83;87.66
4590;BME280;2307;48.448;9.216;2023-05-01T12:59:59;95153.06;;;17.02;87.70
4590;BME280;2307;48.448;9.216;2023-05-01T13:02:29;95151.72;;;17.04;81.17
4590;BME280;2307;48.448;9.216;2023-05-01T13:05:04;95152.69;;;16.84;89.90
4590;BME280;2307;48.448;9.216;2023-05-01T13:07:31;95147.88;;;17.15;87.95
4590;BME280;2307;48.448;9.216;2023-05-01T13:09:57;95140.72;;;17.11;85.95
4590;BME280;2307;48.448;9.216;2023-05-01T13:12:24;95146.88;;;17.35;79.18
4590;BME280;2307;48.448;9.216;2023-05-01T13:14:51;95144.72;;;17.37;84.71
4590;BME280;2307;48.448;9.216;2023-05-01T13:17:21;95136.72;;;17.37;77.22
4590;BME280;2307;48.448;9.216;2023-05-01T13:19:53;95134.72;;;17.47;77.57
4590;BME280;2307;48.448;9.216;2023-05-01T13:22:26;95129.19;;;17.44;79.81
4590;BME280;2307;48.448;9.216;2023-05-01T13:24:54;95127.03;;;17.70;74.81